sensor_id;sensor_type;location;lat;lon;timestamp;pressure;altitude;pressure_sealevel;temperature;humidity
77011;BME280;65945;53.148;17.956;2023-11-19T00:00:59;101770.23;;;-1.12;88.93
77011;BME280;65945;53.148;17.956;2023-11-19T00:03:46;101775.45;;;-1.15;88.79
77011;BME280;65945;53.148;17.956;2023-11-19T00:06:13;101778.23;;;-1.19;88.56
77011;BME280;65945;53.148;17.956;2023-11-19T00:08:39;101772.90;;;-1.23;89.16
77011;BME280;65945;53.148;17.956;2023-11-19T00:11:06;101757.84;;;-1.27;88.95
77011;BME280;65945;53.148;17.956;2023-11-19T00:13:34;101749.62;;;-1.32;89.06
77011;BME280;65945;53.148;17.956;2023-11-19T00:16:01;101748.83;;;-1.38;88.80
77011;BME280;65945;53.148;17.956;2023-11-19T00:18:27;101742.52;;;-1.43;89.06
77011;BME280;65945;53.148;17.956;2023-11-19T00:20:54;101747.08;;;-1.47;89.12
77011;BME280;65945;53.148;17.956;2023-11-19T00:23:20;101748.77;;;-1.51;89.14
77011;BME280;65945;53.148;17.956;2023-11-19T00:25:47;101744.01;;;-1.54;89.50
77011;BME280;65945;53.148;17.956;2023-11-19T00:28:14;101745.46;;;-1.55;89.58
77011;BME280;65945;53.148;17.956;2023-11-19T00:30:40;101746.77;;;-1.56;89.73
77011;BME280;65945;53.148;17.956;2023-11-19T00:33:07;101746.48;;;-1.56;90.00
77011;BME280;65945;53.148;17.956;2023-11-19T00:35:34;101737.91;;;-1.57;89.90
77011;BME280;65945;53.148;17.956;2023-11-19T00:38:00;101734.70;;;-1.59;89.84
77011;BME280;65945;53.148;17.956;2023-11-19T00:40:27;101735.96;;;-1.59;89.72
77011;BME280;65945;53.148;17.956;2023-11-19T00:42:53;101727.58;;;-1.59;90.03
77011;BME280;65945;53.148;17.956;2023-11-19T00:45:20;101721.83;;;-1.57;90.37
77011;BME280;65945;53.148;17.956;2023-11-19T00:47:47;101717.65;;;-1.55;90.39
77011;BME280;65945;53.148;17.956;2023-11-19T00:50:13;101710.48;;;-1.54;90.42
77011;BME280;65945;53.148;17.956;2023-11-19T00:52:40;101699.16;;;-1.52;90.48
77011;BME280;65945;53.148;17.956;2023-11-19T00:55:07;101695.39;;;-1.52;90.30
77011;BME280;65945;53.148;17.956;2023-11-19T00:57:33;101693.77;;;-1.50;90.45
77011;BME280;65945;53.148;17.956;2023-11-19T01:00:00;101699.50;;;-1.50;90.34
77011;BME280;65945;53.148;17.956;2023-11-19T01:02:27;101690.52;;;-1.51;90.45
77011;BME280;65945;53.148;17.956;2023-11-19T01:04:53;101688.95;;;-1.51;90.04
77011;BME280;65945;53.148;17.956;2023-11-19T01:07:21;101682.85;;;-1.52;90.35
77011;BME280;65945;53.148;17.956;2023-11-19T01:09:48;101672.24;;;-1.52;90.39
77011;BME280;65945;53.148;17.956;2023-11-19T01:12:14;101663.05;;;-1.53;90.14
77011;BME280;65945;53.148;17.956;2023-11-19T01:14:41;101658.95;;;-1.53;90.31
77011;BME280;65945;53.148;17.956;2023-11-19T01:17:08;101654.21;;;-1.55;90.43
77011;BME280;65945;53.148;17.956;2023-11-19T01:19:35;101652.27;;;-1.55;90.31
77011;BME280;65945;53.148;17.956;2023-11-19T01:22:02;101655.66;;;-1.57;90.40
77011;BME280;65945;53.148;17.956;2023-11-19T01:24:28;101651.39;;;-1.58;90.36
77011;BME280;65945;53.148;17.956;2023-11-19T01:26:57;101650.48;;;-1.61;90.36
77011;BME280;65945;53.148;17.956;2023-11-19T01:29:26;101647.52;;;-1.63;90.28
77011;BME280;65945;53.148;17.956;2023-11-19T01:31:52;101647.02;;;-1.65;90.34
77011;BME280;65945;53.148;17.956;2023-11-19T01:34:19;101645.47;;;-1.67;90.46
77011;BME280;65945;53.148;17.956;2023-11-19T01:36:46;101646.45;;;-1.69;90.31
77011;BME280;65945;53.148;17.956;2023-11-19T01:39:13;101639.70;;;-1.71;90.39
77011;BME280;65945;53.148;17.956;2023-11-19T01:41:42;101630.58;;;-1.71;90.45
77011;BME280;65945;53.148;17.956;2023-11-19T01:44:09;101626.84;;;-1.72;90.46
77011;BME280;65945;53.148;17.956;2023-11-19T01:46:40;101616.67;;;-1.73;90.49
77011;BME280;65945;53.148;17.956;2023-11-19T01:49:08;101602.69;;;-1.74;90.58
77011;BME280;65945;53.148;17.956;2023-11-19T01:51:35;101594.86;;;-1.74;90.72
77011;BME280;65945;53.148;17.956;2023-11-19T01:54:02;101590.66;;;-1.74;90.82
77011;BME280;65945;53.148;17.956;2023-11-19T01:56:30;101582.86;;;-1.75;91.06
77011;BME280;65945;53.148;17.956;2023-11-19T01:58:58;101580.39;;;-1.75;90.90
77011;BME280;65945;53.148;17.956;2023-11-19T02:01:25;101574.04;;;-1.75;91.13
77011;BME280;65945;53.148;17.956;2023-11-19T02:03:52;101570.31;;;-1.76;90.98
77011;BME280;65945;53.148;17.956;2023-11-19T02:06:19;101567.83;;;-1.77;91.30
77011;BME280;65945;53.148;17.956;2023-11-19T02:08:46;101565.31;;;-1.77;90.95
77011;BME280;65945;53.148;17.956;2023-11-19T02:11:13;101567.34;;;-1.79;91.08
77011;BME280;65945;53.148;17.956;2023-11-19T02:13:39;101569.06;;;-1.80;91.13
77011;BME280;65945;53.148;17.956;2023-11-19T02:16:07;101568.79;;;-1.81;90.92
77011;BME280;65945;53.148;17.956;2023-11-19T02:18:37;101566.78;;;-1.81;91.04
77011;BME280;65945;53.148;17.956;2023-11-19T02:21:04;101555.48;;;-1.80;91.08
77011;BME280;65945;53.148;17.956;2023-11-19T02:23:31;101536.43;;;-1.80;91.03
77011;BME280;65945;53.148;17.956;2023-11-19T02:26:16;101527.08;;;-1.81;91.10
77011;BME280;65945;53.148;17.956;2023-11-19T02:28:45;101520.42;;;-1.81;91.39
77011;BME280;65945;53.148;17.956;2023-11-19T02:31:11;101521.91;;;-1.79;91.42
77011;BME280;65945;53.148;17.956;2023-11-19T02:33:38;101514.64;;;-1.79;91.72
77011;BME280;65945;53.148;17.956;2023-11-19T02:36:06;101517.42;;;-1.78;91.71
77011;BME280;65945;53.148;17.956;2023-11-19T02:38:35;101514.71;;;-1.77;91.66
77011;BME280;65945;53.148;17.956;2023-11-19T02:41:05;101507.48;;;-1.76;91.78
77011;BME280;65945;53.148;17.956;2023-11-19T02:43:33;101501.67;;;-1.74;91.86
77011;BME280;65945;53.148;17.956;2023-11-19T02:46:04;101500.70;;;-1.71;91.75
77011;BME280;65945;53.148;17.956;2023-11-19T02:48:35;101487.84;;;-1.67;91.92
77011;BME280;65945;53.148;17.956;2023-11-19T02:51:02;101482.98;;;-1.64;91.92
77011;BME280;65945;53.148;17.956;2023-11-19T02:53:30;101476.83;;;-1.60;92.02
77011;BME280;65945;53.148;17.956;2023-11-19T02:55:58;101471.56;;;-1.57;91.93
77011;BME280;65945;53.148;17.956;2023-11-19T02:58:32;101475.46;;;-1.54;92.17
77011;BME280;65945;53.148;17.956;2023-11-19T03:01:01;101471.86;;;-1.52;92.24
77011;BME280;65945;53.148;17.956;2023-11-19T03:03:36;101466.70;;;-1.47;92.04
77011;BME280;65945;53.148;17.956;2023-11-19T03:06:07;101463.80;;;-1.43;92.12
77011;BME280;65945;53.148;17.956;2023-11-19T03:08:35;101462.16;;;-1.39;92.19
77011;BME280;65945;53.148;17.956;2023-11-19T03:11:02;101457.14;;;-1.35;92.08
77011;BME280;65945;53.148;17.956;2023-11-19T03:13:31;101451.77;;;-1.31;91.99
77011;BME280;65945;53.148;17.956;2023-11-19T03:15:57;101443.82;;;-1.28;91.82
77011;BME280;65945;53.148;17.956;2023-11-19T03:18:24;101435.42;;;-1.26;91.93
77011;BME280;65945;53.148;17.956;2023-11-19T03:20:51;101425.05;;;-1.24;92.06
77011;BME280;65945;53.148;17.956;2023-11-19T03:23:18;101413.63;;;-1.23;92.06
77011;BME280;65945;53.148;17.956;2023-11-19T03:25:45;101403.92;;;-1.21;92.12
77011;BME280;65945;53.148;17.956;2023-11-19T03:28:12;101397.41;;;-1.20;92.12
77011;BME280;65945;53.148;17.956;2023-11-19T03:30:38;101386.45;;;-1.18;92.05
77011;BME280;65945;53.148;17.956;2023-11-19T03:33:05;101376.13;;;-1.17;92.07
77011;BME280;65945;53.148;17.956;2023-11-19T03:35:31;101368.55;;;-1.17;91.67
77011;BME280;65945;53.148;17.956;2023-11-19T03:37:59;101370.50;;;-1.16;92.20
77011;BME280;65945;53.148;17.956;2023-11-19T03:40:28;101366.84;;;-1.15;92.03
77011;BME280;65945;53.148;17.956;2023-11-19T03:42:58;101358.44;;;-1.14;91.52
77011;BME280;65945;53.148;17.956;2023-11-19T03:45:25;101352.98;;;-1.14;91.78
77011;BME280;65945;53.148;17.956;2023-11-19T03:47:51;101350.84;;;-1.13;91.53
77011;BME280;65945;53.148;17.956;2023-11-19T03:50:18;101353.41;;;-1.13;91.67
77011;BME280;65945;53.148;17.956;2023-11-19T03:52:47;101355.45;;;-1.12;91.44
77011;BME280;65945;53.148;17.956;2023-11-19T03:55:14;101357.87;;;-1.11;91.61
77011;BME280;65945;53.148;17.956;2023-11-19T03:57:40;101354.79;;;-1.08;91.45
77011;BME280;65945;53.148;17.956;2023-11-19T04:00:07;101355.52;;;-1.06;91.45
77011;BME280;65945;53.148;17.956;2023-11-19T04:02:40;101354.38;;;-1.05;91.18
77011;BME280;65945;53.148;17.956;2023-11-19T04:05:07;101342.79;;;-1.04;91.13
77011;BME280;65945;53.148;17.956;2023-11-19T04:07:34;101339.53;;;-1.02;91.04
77011;BME280;65945;53.148;17.956;2023-11-19T04:10:01;101329.98;;;-1.02;91.18
77011;BME280;65945;53.148;17.956;2023-11-19T04:12:27;101331.45;;;-1.00;90.99
77011;BME280;65945;53.148;17.956;2023-11-19T04:14:54;101329.36;;;-0.98;90.91
77011;BME280;65945;53.148;17.956;2023-11-19T04:17:20;101331.48;;;-0.96;91.03
77011;BME280;65945;53.148;17.956;2023-11-19T04:19:47;101323.19;;;-0.93;90.71
77011;BME280;65945;53.148;17.956;2023-11-19T04:22:14;101311.38;;;-0.92;90.56
77011;BME280;65945;53.148;17.956;2023-11-19T04:24:40;101304.93;;;-0.90;90.55
77011;BME280;65945;53.148;17.956;2023-11-19T04:27:07;101297.78;;;-0.89;90.48
77011;BME280;65945;53.148;17.956;2023-11-19T04:29:34;101294.00;;;-0.88;90.46
77011;BME280;65945;53.148;17.956;2023-11-19T04:32:00;101299.01;;;-0.85;90.51
77011;BME280;65945;53.148;17.956;2023-11-19T04:34:27;101294.44;;;-0.83;90.50
77011;BME280;65945;53.148;17.956;2023-11-19T04:36:54;101293.17;;;-0.81;90.33
77011;BME280;65945;53.148;17.956;2023-11-19T04:39:20;101288.20;;;-0.78;90.17
77011;BME280;65945;53.148;17.956;2023-11-19T04:41:48;101279.21;;;-0.77;90.08
77011;BME280;65945;53.148;17.956;2023-11-19T04:44:16;101270.66;;;-0.75;90.16
77011;BME280;65945;53.148;17.956;2023-11-19T04:46:43;101266.36;;;-0.74;89.68
77011;BME280;65945;53.148;17.956;2023-11-19T04:49:10;101255.73;;;-0.74;89.82
77011;BME280;65945;53.148;17.956;2023-11-19T04:51:44;101249.13;;;-0.73;89.79
77011;BME280;65945;53.148;17.956;2023-11-19T04:54:13;101245.14;;;-0.72;89.64
77011;BME280;65945;53.148;17.956;2023-11-19T04:56:45;101241.88;;;-0.72;89.46
77011;BME280;65945;53.148;17.956;2023-11-19T04:59:11;101240.15;;;-0.70;89.38
77011;BME280;65945;53.148;17.956;2023-11-19T05:01:38;101232.17;;;-0.68;89.47
77011;BME280;65945;53.148;17.956;2023-11-19T05:04:05;101222.13;;;-0.66;89.92
77011;BME280;65945;53.148;17.956;2023-11-19T05:06:31;101215.51;;;-0.65;89.62
77011;BME280;65945;53.148;17.956;2023-11-19T05:08:59;101214.45;;;-0.64;89.40
77011;BME280;65945;53.148;17.956;2023-11-19T05:11:34;101214.52;;;-0.61;89.31
77011;BME280;65945;53.148;17.956;2023-11-19T05:14:03;101217.24;;;-0.60;89.38
77011;BME280;65945;53.148;17.956;2023-11-19T05:16:30;101218.26;;;-0.58;89.59
77011;BME280;65945;53.148;17.956;2023-11-19T05:18:57;101212.83;;;-0.55;89.66
77011;BME280;65945;53.148;17.956;2023-11-19T05:21:24;101207.89;;;-0.53;89.68
77011;BME280;65945;53.148;17.956;2023-11-19T05:23:50;101196.65;;;-0.51;89.27
77011;BME280;65945;53.148;17.956;2023-11-19T05:26:21;101186.61;;;-0.50;89.44
77011;BME280;65945;53.148;17.956;2023-11-19T05:28:48;101180.98;;;-0.50;89.69
77011;BME280;65945;53.148;17.956;2023-11-19T05:31:16;101176.09;;;-0.49;89.59
77011;BME280;65945;53.148;17.956;2023-11-19T05:33:43;101174.16;;;-0.48;89.55
77011;BME280;65945;53.148;17.956;2023-11-19T05:36:11;101170.05;;;-0.47;89.69
77011;BME280;65945;53.148;17.956;2023-11-19T05:38:39;101170.90;;;-0.44;89.62
77011;BME280;65945;53.148;17.956;2023-11-19T05:41:06;101172.10;;;-0.43;89.57
77011;BME280;65945;53.148;17.956;2023-11-19T05:43:33;101168.31;;;-0.42;89.56
77011;BME280;65945;53.148;17.956;2023-11-19T05:45:59;101169.80;;;-0.40;89.37
77011;BME280;65945;53.148;17.956;2023-11-19T05:48:27;101169.67;;;-0.37;89.69
77011;BME280;65945;53.148;17.956;2023-11-19T05:50:55;101164.84;;;-0.36;89.77
77011;BME280;65945;53.148;17.956;2023-11-19T05:53:21;101161.58;;;-0.34;89.62
77011;BME280;65945;53.148;17.956;2023-11-19T05:55:48;101156.27;;;-0.33;89.40
77011;BME280;65945;53.148;17.956;2023-11-19T05:58:25;101148.74;;;-0.32;89.69
77011;BME280;65945;53.148;17.956;2023-11-19T06:00:56;101148.75;;;-0.32;89.67
77011;BME280;65945;53.148;17.956;2023-11-19T06:03:22;101146.02;;;-0.31;89.70
77011;BME280;65945;53.148;17.956;2023-11-19T06:05:49;101143.42;;;-0.29;89.91
77011;BME280;65945;53.148;17.956;2023-11-19T06:08:16;101142.95;;;-0.27;89.67
77011;BME280;65945;53.148;17.956;2023-11-19T06:10:43;101133.65;;;-0.26;89.41
77011;BME280;65945;53.148;17.956;2023-11-19T06:13:13;101123.92;;;-0.26;89.66
77011;BME280;65945;53.148;17.956;2023-11-19T06:15:42;101116.40;;;-0.24;89.46
77011;BME280;65945;53.148;17.956;2023-11-19T06:18:09;101105.47;;;-0.23;89.14
77011;BME280;65945;53.148;17.956;2023-11-19T06:20:36;101095.00;;;-0.24;89.30
77011;BME280;65945;53.148;17.956;2023-11-19T06:23:03;101093.70;;;-0.24;89.69
77011;BME280;65945;53.148;17.956;2023-11-19T06:25:29;101093.80;;;-0.25;89.40
77011;BME280;65945;53.148;17.956;2023-11-19T06:27:56;101088.89;;;-0.25;89.46
77011;BME280;65945;53.148;17.956;2023-11-19T06:30:23;101084.34;;;-0.26;89.55
77011;BME280;65945;53.148;17.956;2023-11-19T06:32:51;101085.48;;;-0.25;89.57
77011;BME280;65945;53.148;17.956;2023-11-19T06:35:17;101078.12;;;-0.24;89.51
77011;BME280;65945;53.148;17.956;2023-11-19T06:37:44;101070.71;;;-0.23;89.78
77011;BME280;65945;53.148;17.956;2023-11-19T06:40:11;101067.87;;;-0.23;89.53
77011;BME280;65945;53.148;17.956;2023-11-19T06:42:38;101065.04;;;-0.23;89.69
77011;BME280;65945;53.148;17.956;2023-11-19T06:45:06;101063.77;;;-0.21;89.45
77011;BME280;65945;53.148;17.956;2023-11-19T06:47:33;101064.96;;;-0.20;89.34
77011;BME280;65945;53.148;17.956;2023-11-19T06:49:59;101061.70;;;-0.19;89.63
77011;BME280;65945;53.148;17.956;2023-11-19T06:52:26;101053.02;;;-0.16;89.48
77011;BME280;65945;53.148;17.956;2023-11-19T06:54:53;101050.53;;;-0.13;89.56
77011;BME280;65945;53.148;17.956;2023-11-19T06:57:19;101042.38;;;-0.10;89.56
77011;BME280;65945;53.148;17.956;2023-11-19T06:59:46;101039.10;;;-0.08;89.54
77011;BME280;65945;53.148;17.956;2023-11-19T07:02:13;101034.58;;;-0.05;89.50
77011;BME280;65945;53.148;17.956;2023-11-19T07:04:40;101029.50;;;-0.02;89.56
77011;BME280;65945;53.148;17.956;2023-11-19T07:07:07;101021.46;;;-0.00;89.37
77011;BME280;65945;53.148;17.956;2023-11-19T07:09:33;101019.96;;;0.02;89.45
77011;BME280;65945;53.148;17.956;2023-11-19T07:12:00;101017.64;;;0.05;89.12
77011;BME280;65945;53.148;17.956;2023-11-19T07:14:28;101012.85;;;0.07;89.10
77011;BME280;65945;53.148;17.956;2023-11-19T07:16:55;101012.94;;;0.09;89.11
77011;BME280;65945;53.148;17.956;2023-11-19T07:19:22;101007.81;;;0.11;89.17
77011;BME280;65945;53.148;17.956;2023-11-19T07:21:49;101005.33;;;0.14;89.06
77011;BME280;65945;53.148;17.956;2023-11-19T07:24:15;101001.49;;;0.16;88.82
77011;BME280;65945;53.148;17.956;2023-11-19T07:26:44;101005.58;;;0.17;88.78
77011;BME280;65945;53.148;17.956;2023-11-19T07:29:11;101005.09;;;0.20;88.99
77011;BME280;65945;53.148;17.956;2023-11-19T07:31:37;101000.86;;;0.23;89.04
77011;BME280;65945;53.148;17.956;2023-11-19T07:34:04;100996.47;;;0.27;88.65
77011;BME280;65945;53.148;17.956;2023-11-19T07:36:32;100994.38;;;0.30;88.49
77011;BME280;65945;53.148;17.956;2023-11-19T07:38:59;100991.21;;;0.33;88.53
77011;BME280;65945;53.148;17.956;2023-11-19T07:41:26;100992.61;;;0.36;88.43
77011;BME280;65945;53.148;17.956;2023-11-19T07:43:52;100983.39;;;0.39;88.27
77011;BME280;65945;53.148;17.956;2023-11-19T07:46:19;100976.42;;;0.41;88.23
77011;BME280;65945;53.148;17.956;2023-11-19T07:48:46;100970.86;;;0.44;87.82
77011;BME280;65945;53.148;17.956;2023-11-19T07:51:14;100962.64;;;0.47;88.26
77011;BME280;65945;53.148;17.956;2023-11-19T07:53:41;100959.62;;;0.50;87.89
77011;BME280;65945;53.148;17.956;2023-11-19T07:56:08;100953.69;;;0.52;87.77
77011;BME280;65945;53.148;17.956;2023-11-19T07:58:35;100944.73;;;0.54;87.29
77011;BME280;65945;53.148;17.956;2023-11-19T08:01:02;100940.98;;;0.56;87.50
77011;BME280;65945;53.148;17.956;2023-11-19T08:03:29;100936.96;;;0.59;87.62
77011;BME280;65945;53.148;17.956;2023-11-19T08:06:00;100933.51;;;0.63;87.64
77011;BME280;65945;53.148;17.956;2023-11-19T08:08:28;100924.46;;;0.66;87.38
77011;BME280;65945;53.148;17.956;2023-11-19T08:10:56;100918.45;;;0.67;87.21
77011;BME280;65945;53.148;17.956;2023-11-19T08:13:23;100918.81;;;0.68;87.10
77011;BME280;65945;53.148;17.956;2023-11-19T08:15:51;100919.48;;;0.69;87.07
77011;BME280;65945;53.148;17.956;2023-11-19T08:18:18;100917.30;;;0.72;87.15
77011;BME280;65945;53.148;17.956;2023-11-19T08:20:45;100915.80;;;0.74;87.17
77011;BME280;65945;53.148;17.956;2023-11-19T08:23:11;100911.88;;;0.76;87.07
77011;BME280;65945;53.148;17.956;2023-11-19T08:25:39;100908.97;;;0.79;87.07
77011;BME280;65945;53.148;17.956;2023-11-19T08:28:06;100900.58;;;0.80;86.89
77011;BME280;65945;53.148;17.956;2023-11-19T08:30:32;100891.71;;;0.82;86.69
77011;BME280;65945;53.148;17.956;2023-11-19T08:32:59;100891.47;;;0.85;86.74
77011;BME280;65945;53.148;17.956;2023-11-19T08:35:29;100888.23;;;0.88;86.99
77011;BME280;65945;53.148;17.956;2023-11-19T08:37:56;100887.71;;;0.91;86.66
77011;BME280;65945;53.148;17.956;2023-11-19T08:40:23;100883.82;;;0.91;86.57
77011;BME280;65945;53.148;17.956;2023-11-19T08:42:50;100878.11;;;0.93;86.74
77011;BME280;65945;53.148;17.956;2023-11-19T08:45:16;100870.72;;;0.95;86.80
77011;BME280;65945;53.148;17.956;2023-11-19T08:47:43;100859.70;;;0.95;86.44
77011;BME280;65945;53.148;17.956;2023-11-19T08:50:12;100853.09;;;0.97;86.37
77011;BME280;65945;53.148;17.956;2023-11-19T08:52:38;100851.44;;;0.99;86.35
77011;BME280;65945;53.148;17.956;2023-11-19T08:55:05;100842.77;;;1.02;86.36
77011;BME280;65945;53.148;17.956;2023-11-19T08:57:32;100839.78;;;1.04;86.24
77011;BME280;65945;53.148;17.956;2023-11-19T09:00:02;100833.42;;;1.08;86.13
77011;BME280;65945;53.148;17.956;2023-11-19T09:02:36;100834.04;;;1.13;86.51
77011;BME280;65945;53.148;17.956;2023-11-19T09:05:04;100832.42;;;1.19;86.24
77011;BME280;65945;53.148;17.956;2023-11-19T09:07:33;100834.98;;;1.27;86.31
77011;BME280;65945;53.148;17.956;2023-11-19T09:10:00;100832.04;;;1.34;86.27
77011;BME280;65945;53.148;17.956;2023-11-19T09:12:26;100825.32;;;1.40;86.16
77011;BME280;65945;53.148;17.956;2023-11-19T09:14:53;100820.67;;;1.44;86.07
77011;BME280;65945;53.148;17.956;2023-11-19T09:17:20;100820.38;;;1.45;85.86
77011;BME280;65945;53.148;17.956;2023-11-19T09:19:47;100811.70;;;1.47;85.97
77011;BME280;65945;53.148;17.956;2023-11-19T09:22:13;100803.31;;;1.48;85.60
77011;BME280;65945;53.148;17.956;2023-11-19T09:24:41;100796.84;;;1.48;85.45
77011;BME280;65945;53.148;17.956;2023-11-19T09:27:07;100789.23;;;1.48;85.59
77011;BME280;65945;53.148;17.956;2023-11-19T09:29:34;100781.52;;;1.49;85.74
77011;BME280;65945;53.148;17.956;2023-11-19T09:32:01;100774.30;;;1.50;85.94
77011;BME280;65945;53.148;17.956;2023-11-19T09:34:27;100771.61;;;1.53;86.18
77011;BME280;65945;53.148;17.956;2023-11-19T09:36:54;100766.61;;;1.55;86.12
77011;BME280;65945;53.148;17.956;2023-11-19T09:39:21;100756.92;;;1.54;85.58
77011;BME280;65945;53.148;17.956;2023-11-19T09:41:47;100752.45;;;1.55;86.02
77011;BME280;65945;53.148;17.956;2023-11-19T09:44:14;100744.56;;;1.57;86.06
77011;BME280;65945;53.148;17.956;2023-11-19T09:46:44;100736.28;;;1.60;86.08
77011;BME280;65945;53.148;17.956;2023-11-19T09:49:13;100732.65;;;1.60;85.74
77011;BME280;65945;53.148;17.956;2023-11-19T09:51:40;100725.84;;;1.60;85.98
77011;BME280;65945;53.148;17.956;2023-11-19T09:54:07;100721.39;;;1.61;85.91
77011;BME280;65945;53.148;17.956;2023-11-19T09:56:35;100715.18;;;1.63;85.97
77011;BME280;65945;53.148;17.956;2023-11-19T09:59:03;100714.83;;;1.63;85.69
77011;BME280;65945;53.148;17.956;2023-11-19T10:01:29;100708.75;;;1.64;85.84
77011;BME280;65945;53.148;17.956;2023-11-19T10:03:58;100699.42;;;1.64;85.85
77011;BME280;65945;53.148;17.956;2023-11-19T10:06:25;100698.05;;;1.64;85.79
77011;BME280;65945;53.148;17.956;2023-11-19T10:08:53;100697.33;;;1.66;85.89
77011;BME280;65945;53.148;17.956;2023-11-19T10:11:20;100694.65;;;1.68;86.00
77011;BME280;65945;53.148;17.956;2023-11-19T10:13:47;100692.64;;;1.68;85.84
77011;BME280;65945;53.148;17.956;2023-11-19T10:16:17;100684.46;;;1.69;85.73
77011;BME280;65945;53.148;17.956;2023-11-19T10:18:49;100680.73;;;1.70;85.78
77011;BME280;65945;53.148;17.956;2023-11-19T10:21:18;100679.46;;;1.74;86.07
77011;BME280;65945;53.148;17.956;2023-11-19T10:23:48;100676.77;;;1.76;85.65
77011;BME280;65945;53.148;17.956;2023-11-19T10:26:19;100671.74;;;1.78;85.73
77011;BME280;65945;53.148;17.956;2023-11-19T10:28:49;100669.17;;;1.80;85.83
77011;BME280;65945;53.148;17.956;2023-11-19T10:31:17;100665.42;;;1.83;86.15
77011;BME280;65945;53.148;17.956;2023-11-19T10:33:45;100660.70;;;1.85;85.96
77011;BME280;65945;53.148;17.956;2023-11-19T10:36:13;100656.49;;;1.87;85.78
77011;BME280;65945;53.148;17.956;2023-11-19T10:38:40;100650.21;;;1.87;85.77
77011;BME280;65945;53.148;17.956;2023-11-19T10:41:07;100649.73;;;1.88;85.63
77011;BME280;65945;53.148;17.956;2023-11-19T10:43:43;100645.85;;;1.86;85.18
77011;BME280;65945;53.148;17.956;2023-11-19T10:46:14;100640.40;;;1.85;85.37
77011;BME280;65945;53.148;17.956;2023-11-19T10:48:40;100639.24;;;1.84;85.52
77011;BME280;65945;53.148;17.956;2023-11-19T10:51:07;100637.61;;;1.83;85.59
77011;BME280;65945;53.148;17.956;2023-11-19T10:53:38;100636.94;;;1.83;85.64
77011;BME280;65945;53.148;17.956;2023-11-19T10:56:10;100628.70;;;1.84;85.67
77011;BME280;65945;53.148;17.956;2023-11-19T10:58:44;100628.17;;;1.84;85.75
77011;BME280;65945;53.148;17.956;2023-11-19T11:01:19;100625.41;;;1.85;85.89
77011;BME280;65945;53.148;17.956;2023-11-19T11:03:47;100615.51;;;1.84;85.86
77011;BME280;65945;53.148;17.956;2023-11-19T11:06:14;100610.77;;;1.81;85.98
77011;BME280;65945;53.148;17.956;2023-11-19T11:08:41;100603.56;;;1.80;86.21
77011;BME280;65945;53.148;17.956;2023-11-19T11:11:09;100598.59;;;1.75;86.27
77011;BME280;65945;53.148;17.956;2023-11-19T11:13:42;100594.47;;;1.70;86.60
77011;BME280;65945;53.148;17.956;2023-11-19T11:16:09;100589.64;;;1.66;86.93
77011;BME280;65945;53.148;17.956;2023-11-19T11:18:36;100584.69;;;1.63;86.98
77011;BME280;65945;53.148;17.956;2023-11-19T11:21:07;100575.19;;;1.58;87.17
77011;BME280;65945;53.148;17.956;2023-11-19T11:29:26;100557.54;;;1.43;87.74
77011;BME280;65945;53.148;17.956;2023-11-19T11:32:07;100548.47;;;1.38;87.97
77011;BME280;65945;53.148;17.956;2023-11-19T11:39:36;100524.02;;;1.23;88.40
77011;BME280;65945;53.148;17.956;2023-11-19T11:45:08;100509.99;;;1.12;88.83
77011;BME280;65945;53.148;17.956;2023-11-19T11:50:10;100499.80;;;1.04;89.49
77011;BME280;65945;53.148;17.956;2023-11-19T11:57:55;100485.41;;;0.93;90.02
77011;BME280;65945;53.148;17.956;2023-11-19T12:00:26;100483.98;;;0.91;90.03
77011;BME280;65945;53.148;17.956;2023-11-19T12:02:57;100477.39;;;0.89;90.08
77011;BME280;65945;53.148;17.956;2023-11-19T12:05:26;100473.89;;;0.87;90.19
77011;BME280;65945;53.148;17.956;2023-11-19T12:07:58;100469.07;;;0.86;90.28
77011;BME280;65945;53.148;17.956;2023-11-19T12:10:29;100467.52;;;0.83;90.46
77011;BME280;65945;53.148;17.956;2023-11-19T12:13:01;100461.23;;;0.82;90.42
77011;BME280;65945;53.148;17.956;2023-11-19T12:15:28;100443.40;;;0.81;90.57
77011;BME280;65945;53.148;17.956;2023-11-19T12:17:55;100434.25;;;0.80;90.58
77011;BME280;65945;53.148;17.956;2023-11-19T12:20:23;100426.64;;;0.79;90.41
77011;BME280;65945;53.148;17.956;2023-11-19T12:22:51;100416.20;;;0.77;90.91
77011;BME280;65945;53.148;17.956;2023-11-19T12:25:18;100405.77;;;0.73;91.11
77011;BME280;65945;53.148;17.956;2023-11-19T12:27:50;100413.20;;;0.71;91.24
77011;BME280;65945;53.148;17.956;2023-11-19T12:30:24;100412.95;;;0.70;91.36
77011;BME280;65945;53.148;17.956;2023-11-19T12:32:51;100397.23;;;0.68;91.51
77011;BME280;65945;53.148;17.956;2023-11-19T12:35:20;100391.37;;;0.67;91.51
77011;BME280;65945;53.148;17.956;2023-11-19T12:37:48;100402.48;;;0.67;91.38
77011;BME280;65945;53.148;17.956;2023-11-19T12:42:46;100436.64;;;0.67;91.47
77011;BME280;65945;53.148;17.956;2023-11-19T12:45:13;100427.49;;;0.69;91.30
77011;BME280;65945;53.148;17.956;2023-11-19T12:47:40;100417.80;;;0.70;91.64
77011;BME280;65945;53.148;17.956;2023-11-19T12:50:08;100414.10;;;0.71;91.32
77011;BME280;65945;53.148;17.956;2023-11-19T12:52:36;100406.46;;;0.73;91.49
77011;BME280;65945;53.148;17.956;2023-11-19T12:55:05;100403.08;;;0.74;91.62
77011;BME280;65945;53.148;17.956;2023-11-19T12:57:40;100400.42;;;0.76;91.50
77011;BME280;65945;53.148;17.956;2023-11-19T13:00:18;100393.36;;;0.77;91.43
77011;BME280;65945;53.148;17.956;2023-11-19T13:02:52;100392.44;;;0.78;91.52
77011;BME280;65945;53.148;17.956;2023-11-19T13:05:26;100395.23;;;0.80;91.42
77011;BME280;65945;53.148;17.956;2023-11-19T13:10:28;100379.97;;;0.82;91.51
77011;BME280;65945;53.148;17.956;2023-11-19T13:13:08;100373.71;;;0.82;91.51
77011;BME280;65945;53.148;17.956;2023-11-19T13:15:35;100374.10;;;0.81;91.76